Waverly, NE (68462)

6:51 PM CST on February 11, 2016 (GMT -0600)
Aspen Park South West | | Change Station
CLOSE
Current Station
Personal Weather Station
Location: Waverly, NE
Elevation: 1115 ft
Nearby Weather Stations

Elev 1115 ft 40.91 °N, 96.54 °W | Updated 25 seconds ago

Overcast
Overcast
29.7 °F
Feels Like 26 °F
N
3.4
Wind Variable Wind from SW
Gusts 4.9 mph

Today
High -- | Low -- °F
--% Chance of Precip.
Yesterday
High -- | Low -- °F
Precip. -- in
Pressure 30.23 in
Visibility 8.0 miles
Clouds Overcast 1400 ft
Windchill 26 °F
Dew Point 22 °F
Humidity 73%
Rainfall 0.00 in
Snow Depth Not available.
7:25 AM 5:55 PM
Waxing Crescent, 16% visible
METAR KLNK 112354Z 21004KT 8SM OVC014 M02/M05 A3018 RMK AO2 SLP237 T10171050 11017 21050 51010
Pressure 30.23 in
Visibility 8.0 miles
Clouds Overcast 1400 ft
Windchill 26 °F
Dew Point 22 °F
Humidity 73%
Rainfall 0.00 in
Snow Depth Not available.
7:25 AM 5:55 PM
Waxing Crescent, 16% visible
METAR KLNK 112354Z 21004KT 8SM OVC014 M02/M05 A3018 RMK AO2 SLP237 T10171050 11017 21050 51010

10-Day Weather Forecast

Almanac

Astronomy

Feb. 11, 2016 Rise Set
Actual Time
Civil Twilight
Nautical Twilight
Astronomical Twilight
Moon
Length of Visible Light
Length of Day
Tomorrow will be .
, % of the Moon is Illuminated

Today's Extremes

State Highs State Lows

Community

WunderPhotos

Upload Photos

1,892,195 photos uploaded!

WunderBlog® & News

Nearby

Air Quality

  Air Quality AQ Index Pollutant
Not available.

Snow Depth

Station Depth Elevation

Earthquake Activity

City Distance Mag. Time & Date
Minimum magnitude displayed is 2.5.

Coastal Water Temperatures

Place Temperature

Stations

Nearby Weather Stations

Station Location Temp. Windchill Dew Point Humidity Wind Precip. Elev Updated Type
                   

Watches & Warnings

There are currently no watches in effect.